Time;durP1;ratioP1;P1;durP2;ratioP2;P2;SDS_P1;SDS_P2;PMS_P1;PMS_P2;Temp;Humidity;BMP_temperature;BMP_pressure;BME280_temperature;BME280_humidity;BME280_pressure;Samples;Min_cycle;Max_cycle;Signal;HPM_P1;HPM_P2
2022/05/07 00:01:07;;;;;;;19.88;15.35;;;;;;;10.64;100.00;102222.25;5313187;27;20075;-81
2022/05/07 00:03:39;;;;;;;17.65;14.50;;;;;;;10.74;100.00;102241.97;5296192;28;20188;-80
2022/05/07 00:06:10;;;;;;;14.93;13.05;;;;;;;10.65;100.00;102229.31;5314910;28;20119;-81
2022/05/07 00:08:41;;;;;;;14.80;13.30;;;;;;;10.53;100.00;102231.00;5310615;28;20032;-81
2022/05/07 00:11:15;;;;;;;19.00;15.30;;;;;;;10.46;100.00;102229.75;5317404;28;20030;-81
2022/05/07 00:13:48;;;;;;;15.82;13.68;;;;;;;10.34;100.00;102216.31;5310759;28;20024;-81
2022/05/07 00:19:09;;;;;;;16.80;14.48;;;;;;;10.32;100.00;102218.22;5309619;28;20403;-80
2022/05/07 00:21:40;;;;;;;17.63;13.55;;;;;;;10.25;100.00;102227.56;5299696;28;20051;-80
2022/05/07 00:24:12;;;;;;;18.73;15.85;;;;;;;10.13;100.00;102231.97;5295684;28;20116;-80
2022/05/07 00:26:43;;;;;;;16.20;14.40;;;;;;;10.13;100.00;102223.97;5316982;28;20061;-80
2022/05/07 00:29:15;;;;;;;15.85;13.73;;;;;;;10.19;100.00;102231.53;5294452;28;20021;-81
2022/05/07 00:31:46;;;;;;;16.40;13.73;;;;;;;10.10;100.00;102228.63;5296515;28;20024;-81
2022/05/07 00:34:18;;;;;;;18.73;15.13;;;;;;;10.11;100.00;102211.69;5308233;28;20029;-81
2022/05/07 00:36:49;;;;;;;15.93;14.23;;;;;;;10.10;100.00;102220.63;5313714;28;20036;-81
2022/05/07 00:39:20;;;;;;;14.13;12.63;;;;;;;10.05;100.00;102218.28;5310930;28;20032;-82
2022/05/07 00:41:52;;;;;;;15.73;13.48;;;;;;;10.14;100.00;102214.16;5314466;28;20033;-81
2022/05/07 00:44:23;;;;;;;19.38;12.77;;;;;;;10.13;100.00;102217.75;5309845;28;20108;-81
2022/05/07 00:47:06;;;;;;;19.75;16.92;;;;;;;10.20;100.00;102205.69;5314256;28;20069;-81
2022/05/07 00:49:38;;;;;;;21.95;19.63;;;;;;;10.20;100.00;102211.03;5314196;28;20036;-81
2022/05/07 00:52:10;;;;;;;20.70;15.15;;;;;;;10.33;100.00;102203.09;5310475;28;20053;-80
2022/05/07 00:54:41;;;;;;;21.27;15.35;;;;;;;10.38;100.00;102212.47;5310548;28;20929;-80
2022/05/07 00:57:14;;;;;;;17.30;14.45;;;;;;;10.47;100.00;102218.13;5309626;28;20103;-80
2022/05/07 00:59:46;;;;;;;17.60;14.05;;;;;;;10.53;100.00;102213.19;5294322;28;20525;-80
2022/05/07 01:02:17;;;;;;;17.15;14.25;;;;;;;10.56;100.00;102204.13;5307821;28;20032;-81
2022/05/07 01:04:48;;;;;;;16.45;11.95;;;;;;;10.42;100.00;102206.91;5316409;28;20792;-80
2022/05/07 01:07:20;;;;;;;17.77;13.75;;;;;;;10.28;100.00;102211.38;5292014;28;20434;-80
2022/05/07 01:09:53;;;;;;;14.10;12.60;;;;;;;10.42;100.00;102213.09;5299122;28;20032;-80
2022/05/07 01:12:24;;;;;;;13.98;11.60;;;;;;;10.34;100.00;102202.09;5312924;28;20024;-80
2022/05/07 01:14:57;;;;;;;15.35;12.90;;;;;;;10.27;100.00;102206.97;5308523;28;20737;-81
2022/05/07 01:17:32;;;;;;;16.70;12.20;;;;;;;10.29;100.00;102210.41;5297749;28;20058;-81
2022/05/07 01:20:09;;;;;;;14.23;12.05;;;;;;;10.16;100.00;102194.41;5296692;28;20549;-80
2022/05/07 01:22:41;;;;;;;15.05;13.45;;;;;;;10.26;100.00;102199.97;5292484;28;20162;-80
2022/05/07 01:25:13;;;;;;;14.55;12.10;;;;;;;10.13;100.00;102196.44;5312466;28;20082;-80
2022/05/07 01:27:44;;;;;;;14.57;12.35;;;;;;;10.20;100.00;102195.91;5314668;28;21087;-81
2022/05/07 01:30:15;;;;;;;13.60;11.95;;;;;;;10.25;100.00;102192.91;5313222;28;20028;-80
2022/05/07 01:32:46;;;;;;;15.75;14.07;;;;;;;10.26;100.00;102188.44;5293360;28;20085;-80
2022/05/07 01:35:18;;;;;;;16.67;13.90;;;;;;;10.26;100.00;102177.78;5309919;28;20028;-80
2022/05/07 01:37:49;;;;;;;14.55;12.48;;;;;;;10.14;100.00;102185.66;5295167;28;20119;-81
2022/05/07 01:40:20;;;;;;;15.02;12.50;;;;;;;10.09;100.00;102178.94;5311482;28;25524;-80
2022/05/07 01:42:52;;;;;;;13.15;11.90;;;;;;;10.15;100.00;102176.72;5315063;28;20036;-80
2022/05/07 01:45:23;;;;;;;13.07;11.80;;;;;;;10.13;100.00;102188.44;5282054;28;20434;-80
2022/05/07 01:48:09;;;;;;;15.90;14.18;;;;;;;10.01;100.00;102185.66;5297253;28;20483;-80
2022/05/07 01:50:42;;;;;;;21.42;14.82;;;;;;;10.03;100.00;102185.56;5313461;28;20190;-80
2022/05/07 01:53:14;;;;;;;19.13;16.58;;;;;;;10.03;100.00;102180.22;5307683;28;20118;-80
2022/05/07 01:55:46;;;;;;;15.93;14.15;;;;;;;9.87;100.00;102179.56;5312564;28;20040;-80
2022/05/07 01:58:17;;;;;;;18.20;15.15;;;;;;;9.79;100.00;102186.28;5313879;28;20020;-80
2022/05/07 02:00:48;;;;;;;15.73;14.02;;;;;;;9.76;100.00;102182.97;5314081;27;20037;-80
2022/05/07 02:03:19;;;;;;;15.77;12.85;;;;;;;9.76;100.00;102181.16;5318337;28;20316;-80
2022/05/07 02:05:51;;;;;;;15.85;12.60;;;;;;;9.80;100.00;102174.66;5318056;28;20028;-80
2022/05/07 02:08:22;;;;;;;17.05;14.88;;;;;;;9.98;100.00;102177.88;5306834;28;20028;-80
2022/05/07 02:10:54;;;;;;;18.20;13.43;;;;;;;10.05;100.00;102182.78;5310784;28;20051;-80
2022/05/07 02:13:25;;;;;;;15.38;13.20;;;;;;;10.05;100.00;102175.66;5295414;28;20567;-80
2022/05/07 02:15:57;;;;;;;16.33;14.55;;;;;;;10.19;100.00;102172.03;5313705;28;20039;-80
2022/05/07 02:18:28;;;;;;;16.13;14.50;;;;;;;10.05;100.00;102174.81;5313774;28;20024;-81
2022/05/07 02:20:59;;;;;;;15.20;13.70;;;;;;;9.95;100.00;102171.91;5293483;28;20063;-81
2022/05/07 02:23:31;;;;;;;21.60;16.83;;;;;;;9.91;100.00;102173.94;5312081;28;20020;-80
2022/05/07 02:26:02;;;;;;;17.90;14.85;;;;;;;9.84;100.00;102164.66;5320826;28;20572;-80
2022/05/07 02:28:33;;;;;;;16.10;13.40;;;;;;;9.91;100.00;102171.25;5330483;28;20024;-79
2022/05/07 02:31:05;;;;;;;16.40;14.77;;;;;;;9.97;100.00;102157.50;5327274;28;20870;-80
2022/05/07 02:33:36;;;;;;;17.45;14.15;;;;;;;10.10;100.00;102162.84;5329845;28;20080;-80
2022/05/07 02:36:07;;;;;;;17.83;16.02;;;;;;;10.15;100.00;102166.06;5333654;28;20108;-81
2022/05/07 02:38:39;;;;;;;17.75;15.95;;;;;;;10.26;100.00;102167.13;5319423;28;20109;-80
2022/05/07 02:44:02;;;;;;;26.08;19.05;;;;;;;10.22;100.00;102153.16;5314255;28;20112;-80
2022/05/07 02:46:33;;;;;;;17.58;15.75;;;;;;;10.44;100.00;102155.16;5317657;28;20024;-80
2022/05/07 02:49:09;;;;;;;20.05;15.40;;;;;;;10.49;100.00;102160.19;5316656;28;20035;-80
2022/05/07 02:51:40;;;;;;;21.00;17.88;;;;;;;10.45;100.00;102150.66;5311646;28;20029;-80
2022/05/07 02:54:12;;;;;;;18.23;16.40;;;;;;;10.59;100.00;102159.41;5291414;28;21138;-80
2022/05/07 02:56:43;;;;;;;19.88;17.73;;;;;;;10.59;100.00;102158.56;5294299;28;20411;-80
2022/05/07 02:59:14;;;;;;;21.27;18.05;;;;;;;10.54;100.00;102145.53;5297193;28;20043;-80
2022/05/07 03:01:45;;;;;;;21.77;19.23;;;;;;;10.60;100.00;102152.25;5292007;28;21374;-80
2022/05/07 03:04:17;;;;;;;17.73;15.23;;;;;;;10.71;100.00;102157.66;5313824;28;20479;-80
2022/05/07 03:06:48;;;;;;;15.90;14.30;;;;;;;10.69;100.00;102153.38;5294013;28;20035;-80
2022/05/07 03:09:20;;;;;;;21.73;17.45;;;;;;;10.77;100.00;102159.03;5310901;28;20031;-80
2022/05/07 03:11:51;;;;;;;18.92;17.02;;;;;;;10.79;100.00;102155.28;5313052;28;20028;-80
2022/05/07 03:14:22;;;;;;;19.23;17.33;;;;;;;10.85;100.00;102158.47;5315248;28;20028;-81
2022/05/07 03:16:53;;;;;;;20.23;15.85;;;;;;;10.80;100.00;102148.13;5288739;28;20480;-81
2022/05/07 03:19:25;;;;;;;19.45;15.52;;;;;;;10.71;100.00;102155.00;5315825;28;20028;-81
2022/05/07 03:21:56;;;;;;;17.85;16.02;;;;;;;10.79;100.00;102157.09;5311662;28;20047;-81
2022/05/07 03:24:28;;;;;;;18.23;14.98;;;;;;;10.73;100.00;102155.75;5310367;28;20392;-81
2022/05/07 03:27:00;;;;;;;16.15;14.15;;;;;;;10.67;100.00;102153.50;5313729;28;20453;-81
2022/05/07 03:29:31;;;;;;;16.27;14.43;;;;;;;10.43;100.00;102156.13;5313506;28;20062;-81
2022/05/07 03:32:03;;;;;;;20.58;18.20;;;;;;;10.20;100.00;102147.91;5314206;28;20143;-81
2022/05/07 03:34:34;;;;;;;17.73;15.13;;;;;;;10.21;100.00;102149.59;5312151;28;20044;-81
2022/05/07 03:37:06;;;;;;;18.15;16.05;;;;;;;10.14;100.00;102152.81;5317523;28;20032;-81
2022/05/07 03:39:38;;;;;;;20.23;16.70;;;;;;;10.06;100.00;102155.16;5319202;28;20020;-81
2022/05/07 03:42:09;;;;;;;17.17;15.38;;;;;;;10.10;100.00;102152.19;5293977;28;20370;-81
2022/05/07 03:44:40;;;;;;;15.02;13.25;;;;;;;10.21;100.00;102154.94;5312216;28;20050;-81
2022/05/07 03:47:12;;;;;;;16.33;14.70;;;;;;;10.17;100.00;102164.13;5315169;28;20032;-80
2022/05/07 03:49:43;;;;;;;20.60;16.20;;;;;;;10.13;100.00;102164.44;5312534;28;20028;-81
2022/05/07 03:55:05;;;;;;;15.57;13.75;;;;;;;10.06;100.00;102153.34;5313802;28;20032;-80
2022/05/07 03:57:36;;;;;;;16.52;14.65;;;;;;;10.06;100.00;102165.81;5312914;28;20127;-80
2022/05/07 04:00:08;;;;;;;19.48;17.10;;;;;;;10.06;100.00;102172.00;5316242;27;20070;-80
2022/05/07 04:02:40;;;;;;;21.92;19.55;;;;;;;9.98;100.00;102182.34;5318578;28;20052;-80
2022/05/07 04:05:11;;;;;;;18.00;15.65;;;;;;;10.08;100.00;102179.91;5312208;28;20017;-80
2022/05/07 04:07:43;;;;;;;17.42;15.52;;;;;;;10.02;100.00;102171.38;5320496;28;20027;-80
2022/05/07 04:10:14;;;;;;;18.17;16.05;;;;;;;9.88;100.00;102179.47;5317498;28;20399;-80
2022/05/07 04:12:47;;;;;;;32.80;24.42;;;;;;;9.95;100.00;102180.75;5314726;28;20028;-80
2022/05/07 04:15:19;;;;;;;30.67;20.52;;;;;;;10.05;100.00;102180.97;5326022;28;20020;-80
2022/05/07 04:17:50;;;;;;;27.02;22.58;;;;;;;10.07;100.00;102180.88;5328052;28;20032;-80
2022/05/07 04:20:21;;;;;;;32.95;24.50;;;;;;;10.09;100.00;102177.13;5327813;28;20043;-80
2022/05/07 04:22:53;;;;;;;31.65;23.45;;;;;;;10.24;100.00;102183.22;5314207;28;20050;-80
2022/05/07 04:25:24;;;;;;;30.20;25.42;;;;;;;10.27;100.00;102177.66;5329880;28;20051;-80
2022/05/07 04:27:56;;;;;;;28.75;25.67;;;;;;;10.38;100.00;102184.94;5294164;28;20028;-80
2022/05/07 04:30:27;;;;;;;26.55;21.60;;;;;;;10.47;100.00;102186.13;5319330;28;20031;-80
2022/05/07 04:32:59;;;;;;;28.05;23.40;;;;;;;10.52;100.00;102187.47;5318603;28;20063;-80
2022/05/07 04:35:30;;;;;;;24.88;22.05;;;;;;;10.55;100.00;102181.94;5318559;28;20029;-80
2022/05/07 04:38:01;;;;;;;30.30;25.95;;;;;;;10.63;100.00;102183.19;5305959;28;20040;-79
2022/05/07 04:40:33;;;;;;;20.58;18.38;;;;;;;10.76;100.00;102181.34;5334776;28;20044;-79
2022/05/07 04:43:04;;;;;;;32.75;26.70;;;;;;;10.83;100.00;102179.06;5336469;28;20043;-79
2022/05/07 04:45:35;;;;;;;20.42;18.40;;;;;;;10.94;100.00;102192.50;5332009;28;41335;-81
2022/05/07 04:48:07;;;;;;;24.30;19.85;;;;;;;10.97;100.00;102197.59;5312899;28;20484;-80
2022/05/07 04:50:38;;;;;;;23.98;21.50;;;;;;;10.98;100.00;102197.50;5310304;28;20024;-80
2022/05/07 04:53:09;;;;;;;20.38;17.35;;;;;;;11.11;100.00;102197.44;5331400;28;20081;-81
2022/05/07 04:55:41;;;;;;;28.08;24.70;;;;;;;11.09;100.00;102195.88;5301117;28;20524;-80
2022/05/07 04:58:12;;;;;;;23.83;19.00;;;;;;;11.23;100.00;102192.19;5322063;28;20127;-80
2022/05/07 05:00:43;;;;;;;20.90;18.90;;;;;;;11.26;100.00;102198.16;5320493;27;20051;-80
2022/05/07 05:03:16;;;;;;;23.90;20.20;;;;;;;11.23;100.00;102194.84;5321526;28;20039;-80
2022/05/07 05:05:48;;;;;;;23.90;21.35;;;;;;;11.20;100.00;102195.91;5321051;28;20024;-80
2022/05/07 05:08:19;;;;;;;22.83;19.98;;;;;;;11.36;100.00;102201.00;5302775;28;20020;-80
2022/05/07 05:10:51;;;;;;;28.90;25.75;;;;;;;11.42;100.00;102205.88;5321964;27;20429;-80
2022/05/07 05:13:22;;;;;;;22.67;19.92;;;;;;;11.51;100.00;102212.34;5320276;27;20515;-80
2022/05/07 05:15:53;;;;;;;23.42;20.20;;;;;;;11.50;100.00;102211.50;5321965;27;20413;-80
2022/05/07 05:18:25;;;;;;;27.42;24.45;;;;;;;11.60;100.00;102218.81;5300667;28;21590;-80
2022/05/07 05:20:56;;;;;;;22.90;20.50;;;;;;;11.68;100.00;102219.94;5320193;27;20460;-81
2022/05/07 05:23:27;;;;;;;23.98;21.40;;;;;;;11.74;100.00;102226.63;5319408;27;20089;-80
2022/05/07 05:25:59;;;;;;;29.17;26.08;;;;;;;11.68;100.00;102232.47;5323651;27;20077;-80
2022/05/07 05:28:30;;;;;;;21.88;19.35;;;;;;;11.80;100.00;102230.66;5296587;28;20032;-80
2022/05/07 05:31:02;;;;;;;23.40;19.35;;;;;;;11.91;100.00;102230.75;5322469;27;20020;-80
2022/05/07 05:33:33;;;;;;;30.38;26.10;;;;;;;11.94;100.00;102238.53;5317555;27;20032;-80
2022/05/07 05:36:05;;;;;;;26.20;23.30;;;;;;;12.03;100.00;102239.66;5319863;27;20023;-80
2022/05/07 05:38:36;;;;;;;26.38;23.33;;;;;;;12.08;100.00;102235.66;5320825;27;20544;-81
2022/05/07 05:41:08;;;;;;;21.08;18.80;;;;;;;12.26;100.00;102237.88;5318331;28;20036;-80
2022/05/07 05:43:40;;;;;;;23.83;21.20;;;;;;;12.31;100.00;102233.00;5319654;27;20016;-80
2022/05/07 05:46:11;;;;;;;24.15;21.55;;;;;;;12.48;100.00;102234.34;5300282;28;20032;-80
2022/05/07 05:48:42;;;;;;;26.20;22.05;;;;;;;12.61;100.00;102234.25;5303081;28;20028;-80
2022/05/07 05:51:14;;;;;;;32.05;26.58;;;;;;;12.77;100.00;102242.75;5319183;27;20526;-81
2022/05/07 05:53:45;;;;;;;35.88;28.45;;;;;;;13.10;100.00;102246.34;5318947;27;20032;-81
2022/05/07 05:56:16;;;;;;;32.63;28.75;;;;;;;13.31;100.00;102245.59;5300568;28;20043;-81
2022/05/07 05:58:48;;;;;;;29.85;25.30;;;;;;;13.70;100.00;102238.75;5320881;27;20033;-81
2022/05/07 06:01:20;;;;;;;30.00;26.83;;;;;;;14.03;100.00;102242.25;5318810;27;20123;-81
2022/05/07 06:03:51;;;;;;;36.90;27.73;;;;;;;14.34;100.00;102231.53;5319573;28;20028;-80
2022/05/07 06:06:23;;;;;;;30.83;26.83;;;;;;;14.60;100.00;102233.81;5303180;28;20050;-81
2022/05/07 06:08:54;;;;;;;33.92;28.67;;;;;;;14.88;100.00;102234.91;5320238;28;20044;-81
2022/05/07 06:11:25;;;;;;;28.52;23.55;;;;;;;14.96;100.00;102237.78;5321363;28;20036;-81
2022/05/07 06:13:57;;;;;;;23.42;20.98;;;;;;;15.29;100.00;102233.88;5315430;28;20463;-80
2022/05/07 06:16:29;;;;;;;29.60;26.80;;;;;;;15.40;100.00;102232.06;5318383;28;20020;-81
2022/05/07 06:19:01;;;;;;;25.30;21.25;;;;;;;15.76;100.00;102241.28;5298112;28;20456;-80
2022/05/07 06:21:33;;;;;;;25.17;21.15;;;;;;;15.93;100.00;102233.47;5318566;28;20044;-81
2022/05/07 06:29:44;;;;;;;24.17;20.77;;;;;;;16.91;100.00;102244.81;5303045;28;20119;-80
2022/05/07 06:32:17;;;;;;;22.30;19.58;;;;;;;17.16;100.00;102237.84;5315956;28;20111;-81
2022/05/07 06:34:48;;;;;;;20.40;17.83;;;;;;;17.13;100.00;102244.41;5309590;28;20153;-81
2022/05/07 06:37:19;;;;;;;19.35;14.85;;;;;;;17.67;100.00;102233.63;5310006;28;20052;-80
2022/05/07 06:39:51;;;;;;;18.90;15.23;;;;;;;17.85;100.00;102244.41;5315353;28;20174;-81
2022/05/07 06:42:22;;;;;;;20.08;17.98;;;;;;;17.62;100.00;102244.03;5312918;28;20067;-81
2022/05/07 06:44:54;;;;;;;24.40;19.42;;;;;;;17.74;100.00;102244.63;5327578;28;20036;-81
2022/05/07 06:47:26;;;;;;;26.05;18.13;;;;;;;18.16;100.00;102240.44;5330523;28;20062;-81
2022/05/07 06:49:57;;;;;;;23.83;18.40;;;;;;;18.77;100.00;102246.66;5334194;28;20001;-81
2022/05/07 06:52:29;;;;;;;24.60;17.08;;;;;;;18.91;100.00;102247.94;5341890;27;20143;-81
2022/05/07 06:55:00;;;;;;;22.10;19.35;;;;;;;19.22;100.00;102248.22;5332887;28;20039;-81
2022/05/07 06:57:31;;;;;;;22.67;18.33;;;;;;;19.46;100.00;102242.00;5322779;28;20039;-81
2022/05/07 07:00:03;;;;;;;23.65;19.83;;;;;;;19.59;100.00;102249.63;5320997;28;20044;-81
2022/05/07 07:02:34;;;;;;;21.33;18.08;;;;;;;19.93;100.00;102244.06;5325450;27;20036;-81
2022/05/07 07:05:07;;;;;;;21.90;17.40;;;;;;;20.25;100.00;102246.88;5325121;28;20031;-81
2022/05/07 07:07:38;;;;;;;21.65;17.92;;;;;;;20.66;100.00;102238.69;5304092;28;20027;-81
2022/05/07 07:10:09;;;;;;;20.38;17.17;;;;;;;21.32;100.00;102247.31;5292294;27;20043;-81
2022/05/07 07:12:41;;;;;;;20.85;17.65;;;;;;;21.39;100.00;102244.72;5298378;28;20119;-81
2022/05/07 07:15:21;;;;;;;22.02;17.95;;;;;;;21.71;100.00;102247.22;5297345;28;20024;-80
2022/05/07 07:17:52;;;;;;;27.38;17.70;;;;;;;22.16;100.00;102241.91;5314694;28;20028;-81
2022/05/07 07:20:24;;;;;;;25.57;17.70;;;;;;;22.42;100.00;102241.50;5294472;27;20441;-81
2022/05/07 07:22:55;;;;;;;22.67;17.60;;;;;;;23.20;100.00;102247.28;5316505;28;20319;-81
2022/05/07 07:25:26;;;;;;;28.27;17.83;;;;;;;23.48;100.00;102242.97;5316951;27;21563;-81
2022/05/07 07:27:58;;;;;;;25.38;17.30;;;;;;;23.54;99.83;102245.75;5310051;28;20143;-81
2022/05/07 07:30:29;;;;;;;22.90;17.30;;;;;;;23.11;96.49;102236.75;5319235;27;20028;-81
2022/05/07 07:33:01;;;;;;;21.53;16.70;;;;;;;23.86;92.91;102246.28;5316842;28;20381;-81
2022/05/07 07:35:33;;;;;;;19.40;17.35;;;;;;;24.10;90.48;102244.97;5295132;28;20359;-81
2022/05/07 07:38:04;;;;;;;20.40;16.73;;;;;;;24.28;88.56;102240.91;5304337;28;20036;-81
2022/05/07 07:40:36;;;;;;;17.48;15.63;;;;;;;24.83;83.29;102239.16;5310183;28;20071;-82
2022/05/07 07:43:07;;;;;;;18.20;16.13;;;;;;;23.94;83.09;102246.13;5315792;28;20024;-81
2022/05/07 07:48:29;;;;;;;19.48;16.20;;;;;;;25.83;70.96;102242.09;5290083;28;20048;-81
2022/05/07 07:51:00;;;;;;;18.00;15.50;;;;;;;26.26;64.42;102235.31;5312672;28;20052;-81
2022/05/07 07:53:32;;;;;;;22.48;15.77;;;;;;;27.25;56.13;102243.38;5316450;28;20039;-81
2022/05/07 07:56:04;;;;;;;20.67;15.07;;;;;;;27.48;54.50;102240.94;5313940;28;20020;-82
2022/05/07 07:58:35;;;;;;;16.70;14.82;;;;;;;27.24;49.42;102239.78;5316474;27;20032;-82
2022/05/07 08:01:07;;;;;;;16.30;14.60;;;;;;;28.39;47.43;102233.16;5300589;27;20170;-82
2022/05/07 08:03:38;;;;;;;16.47;14.13;;;;;;;28.20;44.97;102242.44;5333288;27;20038;-82
2022/05/07 08:06:09;;;;;;;26.90;16.00;;;;;;;29.20;43.13;102233.84;5332472;27;20270;-82
2022/05/07 08:11:55;;;;;;;20.42;13.90;;;;;;;28.70;42.87;102239.59;5338293;27;20396;-82
2022/05/07 08:14:26;;;;;;;16.60;13.38;;;;;;;29.20;39.89;102235.78;5334191;27;20028;-82
2022/05/07 08:16:57;;;;;;;16.90;14.37;;;;;;;28.69;41.16;102239.81;5336850;27;20035;-82
2022/05/07 08:19:30;;;;;;;21.17;14.55;;;;;;;28.19;42.64;102221.56;5339871;27;20419;-82
2022/05/07 08:22:01;;;;;;;17.45;15.27;;;;;;;27.27;44.42;102228.44;5340101;27;20516;-82
2022/05/07 08:24:33;;;;;;;18.42;15.45;;;;;;;26.73;45.40;102237.97;5338946;27;20031;-81
2022/05/07 08:27:06;;;;;;;18.87;16.33;;;;;;;26.84;47.19;102241.91;5337542;27;20031;-81
2022/05/07 08:29:37;;;;;;;20.77;16.20;;;;;;;25.78;47.19;102238.31;5335916;27;20339;-81
2022/05/07 08:32:09;;;;;;;23.93;15.33;;;;;;;25.88;49.41;102246.06;5337126;27;20024;-81
2022/05/07 08:34:41;;;;;;;20.48;14.50;;;;;;;25.90;49.96;102244.00;5342685;27;20326;-81
2022/05/07 08:37:13;;;;;;;25.35;14.50;;;;;;;27.89;46.91;102241.44;5340263;27;20514;-81
2022/05/07 08:39:44;;;;;;;21.70;15.77;;;;;;;27.66;41.95;102255.75;5342325;27;20016;-81
2022/05/07 08:42:16;;;;;;;21.10;15.45;;;;;;;30.04;40.04;102254.09;5344161;27;20385;-81
2022/05/07 08:44:47;;;;;;;16.70;13.82;;;;;;;30.59;37.32;102250.09;5341095;27;20029;-82
2022/05/07 08:47:19;;;;;;;17.52;14.48;;;;;;;30.72;35.88;102249.84;5340753;27;20031;-81
2022/05/07 08:49:51;;;;;;;18.90;14.68;;;;;;;31.24;34.00;102246.16;5335715;27;20020;-81
2022/05/07 08:52:22;;;;;;;20.08;15.30;;;;;;;29.87;34.62;102246.56;5341773;27;20036;-81
2022/05/07 08:54:54;;;;;;;19.05;14.40;;;;;;;31.09;34.14;102238.47;5337848;27;20020;-81
2022/05/07 08:57:25;;;;;;;16.52;14.45;;;;;;;30.16;35.13;102241.19;5349310;27;20051;-81
2022/05/07 08:59:56;;;;;;;18.00;14.67;;;;;;;31.28;33.27;102241.84;5338591;27;20028;-82
2022/05/07 09:02:27;;;;;;;22.67;14.57;;;;;;;32.09;32.72;102235.19;5318369;28;20332;-82
2022/05/07 09:04:59;;;;;;;18.37;15.27;;;;;;;31.28;31.92;102239.91;5314581;28;20273;-81
2022/05/07 09:07:30;;;;;;;19.40;13.82;;;;;;;33.44;30.39;102248.41;5315087;28;20337;-82
2022/05/07 09:10:03;;;;;;;24.08;14.23;;;;;;;34.68;28.20;102233.44;5295911;28;20019;-82
2022/05/07 09:12:34;;;;;;;21.27;13.73;;;;;;;35.14;26.09;102227.16;5314607;27;20044;-83
2022/05/07 09:15:07;;;;;;;17.05;13.52;;;;;;;34.45;26.99;102234.69;5318318;27;20066;-82
2022/05/07 09:17:39;;;;;;;20.17;14.50;;;;;;;32.27;29.20;102231.31;5295527;28;20039;-82
2022/05/07 09:20:15;;;;;;;16.83;13.50;;;;;;;33.34;29.46;102229.78;5323421;28;20495;-82
2022/05/07 09:22:54;;;;;;;16.85;14.00;;;;;;;34.46;28.64;102231.66;5311202;28;20115;-81
2022/05/07 09:25:27;;;;;;;20.10;13.88;;;;;;;34.13;27.98;102226.50;5322387;28;20390;-81
2022/05/07 09:27:58;;;;;;;25.33;16.55;;;;;;;34.04;28.87;102235.31;5316173;28;20457;-82
2022/05/07 09:30:32;;;;;;;21.65;15.75;;;;;;;35.34;26.85;102227.19;5321539;28;20028;-82
2022/05/07 09:33:06;;;;;;;34.35;17.05;;;;;;;34.75;26.33;102222.09;5313513;28;20032;-81
2022/05/07 09:35:49;;;;;;;19.35;14.32;;;;;;;35.38;26.74;102221.91;5313868;28;20028;-82
2022/05/07 09:38:26;;;;;;;20.15;15.10;;;;;;;34.72;27.32;102225.44;5287184;28;20024;-82
2022/05/07 09:40:57;;;;;;;18.45;15.50;;;;;;;33.46;28.43;102229.59;5321656;28;20037;-82
2022/05/07 09:43:30;;;;;;;23.38;15.95;;;;;;;34.28;27.89;102226.63;5285919;28;20043;-82
2022/05/07 09:46:02;;;;;;;23.13;16.33;;;;;;;35.01;26.82;102228.53;5316725;28;20454;-82
2022/05/07 09:48:36;;;;;;;23.00;16.02;;;;;;;35.02;26.64;102232.97;5312630;28;20029;-82
2022/05/07 09:51:10;;;;;;;21.40;16.98;;;;;;;34.87;26.74;102224.63;5313079;28;20031;-82
2022/05/07 09:59:23;;;;;;;19.15;17.15;;;;;;;36.69;23.78;102228.59;5319902;28;20492;-82
2022/05/07 10:01:59;;;;;;;20.50;17.08;;;;;;;35.51;24.96;102228.88;5333550;27;20090;-81
2022/05/07 10:04:43;;;;;;;19.85;17.10;;;;;;;35.24;25.78;102223.59;5344750;27;20055;-81
2022/05/07 10:07:25;;;;;;;20.92;14.35;;;;;;;37.14;24.03;102217.47;5331250;27;20181;-81
2022/05/07 10:10:08;;;;;;;19.80;14.88;;;;;;;36.70;23.21;102224.69;5343437;27;20031;-81
2022/05/07 10:12:43;;;;;;;17.40;15.55;;;;;;;36.27;24.09;102221.53;5342901;27;20337;-82
2022/05/07 10:15:19;;;;;;;14.43;11.10;;;;;;;37.44;21.57;102225.56;5336970;27;20068;-81
2022/05/07 10:18:07;;;;;;;12.05;10.65;;;;;;;39.28;21.69;102213.25;5343686;27;20550;-81
2022/05/07 10:20:41;;;;;;;12.00;9.60;;;;;;;40.63;19.37;102213.16;5344993;27;20031;-81
2022/05/07 10:23:14;;;;;;;11.20;9.00;;;;;;;41.19;18.61;102213.78;5346023;27;20030;-81
2022/05/07 10:25:56;;;;;;;12.52;9.73;;;;;;;42.14;19.35;102211.84;5349603;27;20019;-82
2022/05/07 10:28:39;;;;;;;13.40;8.32;;;;;;;43.44;17.84;102213.03;5356199;27;20029;-81
2022/05/07 10:31:20;;;;;;;15.55;10.32;;;;;;;41.65;18.61;102200.56;5350728;27;20376;-81
2022/05/07 10:33:52;;;;;;;14.57;10.20;;;;;;;40.80;18.83;102206.09;5348068;27;20023;-81
2022/05/07 10:36:35;;;;;;;13.98;9.38;;;;;;;42.71;18.08;102199.75;5348108;27;20084;-81
2022/05/07 10:39:07;;;;;;;14.13;8.95;;;;;;;42.45;17.55;102206.13;5338579;27;20038;-82
2022/05/07 10:41:47;;;;;;;13.15;7.97;;;;;;;42.04;17.76;102206.50;5339149;27;20081;-82
2022/05/07 10:44:33;;;;;;;10.68;7.65;;;;;;;42.38;17.08;102214.19;5337467;27;20027;-82
2022/05/07 10:47:13;;;;;;;8.18;7.25;;;;;;;41.38;18.29;102204.41;5333484;27;20035;-82
2022/05/07 10:49:50;;;;;;;8.82;6.32;;;;;;;40.50;17.05;102210.38;5338018;27;20024;-82
2022/05/07 10:52:33;;;;;;;12.35;8.18;;;;;;;39.51;18.43;102199.50;5343308;27;20031;-82
2022/05/07 10:55:13;;;;;;;13.27;8.10;;;;;;;41.05;18.27;102198.22;5343935;27;20020;-82
2022/05/07 10:57:47;;;;;;;12.43;7.93;;;;;;;42.59;16.36;102199.56;5337843;27;20494;-82
2022/05/07 11:00:20;;;;;;;11.60;8.35;;;;;;;41.99;16.92;102190.69;5330355;27;20048;-82
2022/05/07 11:02:58;;;;;;;11.23;7.47;;;;;;;42.96;17.03;102191.66;5298729;28;20020;-82
2022/05/07 11:05:34;;;;;;;9.27;7.25;;;;;;;43.19;16.10;102195.88;5321300;28;20024;-82
2022/05/07 11:08:05;;;;;;;10.45;7.18;;;;;;;43.27;15.23;102190.59;5314516;27;20039;-82
2022/05/07 11:10:37;;;;;;;9.93;7.40;;;;;;;40.47;17.26;102185.88;5317770;27;20743;-82
2022/05/07 11:13:12;;;;;;;11.10;7.43;;;;;;;39.20;18.20;102188.84;5316963;27;20028;-82
2022/05/07 11:15:44;;;;;;;9.32;7.50;;;;;;;39.71;17.57;102181.53;5318180;28;20416;-82
2022/05/07 11:18:16;;;;;;;8.45;7.22;;;;;;;39.19;18.55;102186.38;5319497;27;20028;-82
2022/05/07 11:20:58;;;;;;;11.40;8.05;;;;;;;38.61;19.93;102188.38;5317087;28;20074;-82
2022/05/07 11:23:35;;;;;;;13.52;8.70;;;;;;;35.97;23.12;102181.63;5316691;28;20032;-82
2022/05/07 11:26:17;;;;;;;13.18;8.95;;;;;;;35.21;23.58;102184.22;5311587;28;20464;-82
2022/05/07 11:28:50;;;;;;;9.77;8.25;;;;;;;33.30;25.36;102183.59;5308552;27;20020;-83
2022/05/07 11:31:39;;;;;;;11.82;8.52;;;;;;;33.47;25.49;102188.97;5319586;27;20115;-81
2022/05/07 11:34:12;;;;;;;15.75;8.88;;;;;;;32.65;25.71;102177.97;5318962;27;41887;-81
2022/05/07 11:36:43;;;;;;;14.90;8.20;;;;;;;34.66;24.65;102169.97;5303429;27;20020;-81
2022/05/07 11:39:19;;;;;;;11.35;7.68;;;;;;;36.96;22.00;102182.81;5319917;27;20021;-82
2022/05/07 11:41:55;;;;;;;12.40;8.50;;;;;;;38.91;21.48;102173.13;5311827;28;20425;-82
2022/05/07 11:47:23;;;;;;;11.05;9.00;;;;;;;35.21;23.98;102173.13;5303890;28;20032;-82
2022/05/07 11:50:07;;;;;;;13.07;9.18;;;;;;;33.81;25.31;102177.63;5305495;28;20024;-81
2022/05/07 11:52:39;;;;;;;11.23;8.93;;;;;;;32.95;26.08;102171.91;5317432;28;20066;-81
2022/05/07 11:55:10;;;;;;;12.27;9.20;;;;;;;32.70;26.69;102166.16;5296425;28;20472;-81
2022/05/07 11:57:44;;;;;;;15.80;8.73;;;;;;;32.33;27.22;102166.78;5321545;28;20693;-81
2022/05/07 12:00:21;;;;;;;14.47;10.00;;;;;;;32.45;28.57;102166.66;5315068;27;20036;-81